PWSweather.com
Personal Weather Stations
Station Observations
KCARIDGE3
Ridgecrest, CA 93555

Ridgecrest, CA 93555

Lat: 35.62083817, Lon: -117.6733017

Elevation: 2315

Station Type:

High Low Average
Temperature 87.3°F30.7°C 52.9°F11.6°C 70.0°F21.1°C
Dew Point 34.7°F1.5°C 23.7°F-4.6°C 29.5°F-1.4°C
Winds 12.1 mph 19.5 kmh Calm Calm 4.0 mph S6.4 kmh S
Wind Gusts 17.9 mph28.8 kmh -- 4.0 mph6.4 kmh
Humidity 45% 10% 24%
Pressure -338605.1 mb -338605.1 mb -
Precipitation 0.00 in0.0 mm - -
Hour Temp Dew Point Humidity Winds Wind Gusts Pressure Precip Precip Rate Daily Precip Total
12:02 AM 64.4°F18.0°C 29.7°F-1.3°C 27% 4.0 mph WSW6.4 kmh WSW 2.9 mph4.7 kmh -338605.1 mb 0.00 in0.0 mm 0.00 in/hr0.0 mm/hr 0.00 in0.0 mm
12:07 AM 64.2°F17.9°C 30.4°F-0.9°C 28% 2.9 mph WSW4.7 kmh WSW 2.9 mph4.7 kmh -338605.1 mb 0.00 in0.0 mm 0.00 in/hr0.0 mm/hr 0.00 in0.0 mm
12:12 AM 63.9°F17.7°C 32.7°F0.4°C 31% 2.9 mph SSE4.7 kmh SSE 2.0 mph3.2 kmh -338605.1 mb 0.00 in0.0 mm 0.00 in/hr0.0 mm/hr 0.00 in0.0 mm
12:17 AM 63.3°F17.4°C 30.6°F-0.8°C 29% 2.9 mph SSE4.7 kmh SSE 0.9 mph1.4 kmh -338605.1 mb 0.00 in0.0 mm 0.00 in/hr0.0 mm/hr 0.00 in0.0 mm
12:22 AM 63.1°F17.3°C 29.5°F-1.4°C 28% 0.9 mph SSE1.4 kmh SSE -- -338605.1 mb 0.00 in0.0 mm 0.00 in/hr0.0 mm/hr 0.00 in0.0 mm
12:27 AM 62.6°F17.0°C 30.7°F-0.7°C 30% Calm Calm -- -338605.1 mb 0.00 in0.0 mm 0.00 in/hr0.0 mm/hr 0.00 in0.0 mm
12:32 AM 61.7°F16.5°C 30.7°F-0.7°C 31% 0.9 mph SSE1.4 kmh SSE 2.9 mph4.7 kmh -338605.1 mb 0.00 in0.0 mm 0.00 in/hr0.0 mm/hr 0.00 in0.0 mm
12:37 AM 61.2°F16.2°C 31.1°F-0.5°C 32% 2.0 mph SSE3.2 kmh SSE 2.9 mph4.7 kmh -338605.1 mb 0.00 in0.0 mm 0.00 in/hr0.0 mm/hr 0.00 in0.0 mm
12:42 AM 61.2°F16.2°C 31.1°F-0.5°C 32% 2.9 mph SSE4.7 kmh SSE 4.0 mph6.4 kmh -338605.1 mb 0.00 in0.0 mm 0.00 in/hr0.0 mm/hr 0.00 in0.0 mm
12:47 AM 61.0°F16.1°C 30.2°F-1.0°C 31% 4.0 mph SSE6.4 kmh SSE 4.0 mph6.4 kmh -338605.1 mb 0.00 in0.0 mm 0.00 in/hr0.0 mm/hr 0.00 in0.0 mm
12:52 AM 60.6°F15.9°C 30.6°F-0.8°C 32% 4.0 mph S6.4 kmh S 4.0 mph6.4 kmh -338605.1 mb 0.00 in0.0 mm 0.00 in/hr0.0 mm/hr 0.00 in0.0 mm
12:57 AM 60.6°F15.9°C 30.6°F-0.8°C 32% 4.0 mph SW6.4 kmh SW 4.9 mph7.9 kmh -338605.1 mb 0.00 in0.0 mm 0.00 in/hr0.0 mm/hr 0.00 in0.0 mm
01:02 AM 60.6°F15.9°C 30.6°F-0.8°C 32% 4.9 mph SSW7.9 kmh SSW 4.0 mph6.4 kmh -338605.1 mb 0.00 in0.0 mm 0.00 in/hr0.0 mm/hr 0.00 in0.0 mm
01:07 AM 60.6°F15.9°C 30.6°F-0.8°C 32% 4.9 mph SW7.9 kmh SW 4.9 mph7.9 kmh -338605.1 mb 0.00 in0.0 mm 0.00 in/hr0.0 mm/hr 0.00 in0.0 mm
01:12 AM 60.6°F15.9°C 30.6°F-0.8°C 32% 4.9 mph SSW7.9 kmh SSW 4.9 mph7.9 kmh -338605.1 mb 0.00 in0.0 mm 0.00 in/hr0.0 mm/hr 0.00 in0.0 mm
01:17 AM 60.8°F16.0°C 30.7°F-0.7°C 32% 4.9 mph SW7.9 kmh SW 4.9 mph7.9 kmh -338605.1 mb 0.00 in0.0 mm 0.00 in/hr0.0 mm/hr 0.00 in0.0 mm
01:22 AM 60.8°F16.0°C 30.7°F-0.7°C 32% 4.0 mph SW6.4 kmh SW 4.9 mph7.9 kmh -338605.1 mb 0.00 in0.0 mm 0.00 in/hr0.0 mm/hr 0.00 in0.0 mm
01:27 AM 61.0°F16.1°C 30.9°F-0.6°C 32% 4.0 mph SW6.4 kmh SW 2.9 mph4.7 kmh -338605.1 mb 0.00 in0.0 mm 0.00 in/hr0.0 mm/hr 0.00 in0.0 mm
01:32 AM 61.2°F16.2°C 30.2°F-1.0°C 31% 2.9 mph SW4.7 kmh SW 2.0 mph3.2 kmh -338605.1 mb 0.00 in0.0 mm 0.00 in/hr0.0 mm/hr 0.00 in0.0 mm
01:37 AM 61.0°F16.1°C 30.2°F-1.0°C 31% 2.9 mph W4.7 kmh W 6.0 mph9.7 kmh -338605.1 mb 0.00 in0.0 mm 0.00 in/hr0.0 mm/hr 0.00 in0.0 mm
01:42 AM 61.0°F16.1°C 30.2°F-1.0°C 31% 4.0 mph WSW6.4 kmh WSW 6.9 mph11.1 kmh -338605.1 mb 0.00 in0.0 mm 0.00 in/hr0.0 mm/hr 0.00 in0.0 mm
01:47 AM 61.0°F16.1°C 29.3°F-1.5°C 30% 6.0 mph SW9.7 kmh SW 4.9 mph7.9 kmh -338605.1 mb 0.00 in0.0 mm 0.00 in/hr0.0 mm/hr 0.00 in0.0 mm
01:52 AM 61.0°F16.1°C 29.3°F-1.5°C 30% 6.0 mph SW9.7 kmh SW 2.9 mph4.7 kmh -338605.1 mb 0.00 in0.0 mm 0.00 in/hr0.0 mm/hr 0.00 in0.0 mm
01:57 AM 61.0°F16.1°C 29.3°F-1.5°C 30% 4.0 mph SW6.4 kmh SW 2.0 mph3.2 kmh -338605.1 mb 0.00 in0.0 mm 0.00 in/hr0.0 mm/hr 0.00 in0.0 mm
02:02 AM 61.0°F16.1°C 30.2°F-1.0°C 31% 2.9 mph SW4.7 kmh SW 2.0 mph3.2 kmh -338605.1 mb 0.00 in0.0 mm 0.00 in/hr0.0 mm/hr 0.00 in0.0 mm
02:07 AM 61.0°F16.1°C 30.9°F-0.6°C 32% 2.9 mph SW4.7 kmh SW 2.9 mph4.7 kmh -338605.1 mb 0.00 in0.0 mm 0.00 in/hr0.0 mm/hr 0.00 in0.0 mm
02:12 AM 60.8°F16.0°C 31.5°F-0.3°C 33% 2.9 mph SW4.7 kmh SW 2.9 mph4.7 kmh -338605.1 mb 0.00 in0.0 mm 0.00 in/hr0.0 mm/hr 0.00 in0.0 mm
02:17 AM 60.4°F15.8°C 32.0°F0.0°C 34% 2.9 mph S4.7 kmh S 2.9 mph4.7 kmh -338605.1 mb 0.00 in0.0 mm 0.00 in/hr0.0 mm/hr 0.00 in0.0 mm
02:22 AM 60.4°F15.8°C 31.3°F-0.4°C 33% 2.0 mph S3.2 kmh S 0.9 mph1.4 kmh -338605.1 mb 0.00 in0.0 mm 0.00 in/hr0.0 mm/hr 0.00 in0.0 mm
02:27 AM 60.1°F15.6°C 30.9°F-0.6°C 33% 0.9 mph S1.4 kmh S 2.9 mph4.7 kmh -338605.1 mb 0.00 in0.0 mm 0.00 in/hr0.0 mm/hr 0.00 in0.0 mm
02:32 AM 59.9°F15.5°C 30.7°F-0.7°C 33% 2.0 mph S3.2 kmh S -- -338605.1 mb 0.00 in0.0 mm 0.00 in/hr0.0 mm/hr 0.00 in0.0 mm
02:37 AM 59.7°F15.4°C 31.3°F-0.4°C 34% 0.9 mph S1.4 kmh S 0.9 mph1.4 kmh -338605.1 mb 0.00 in0.0 mm 0.00 in/hr0.0 mm/hr 0.00 in0.0 mm
02:42 AM 59.5°F15.3°C 30.4°F-0.9°C 33% 0.9 mph S1.4 kmh S -- -338605.1 mb 0.00 in0.0 mm 0.00 in/hr0.0 mm/hr 0.00 in0.0 mm
02:47 AM 59.4°F15.2°C 30.9°F-0.6°C 34% 0.9 mph S1.4 kmh S -- -338605.1 mb 0.00 in0.0 mm 0.00 in/hr0.0 mm/hr 0.00 in0.0 mm
02:52 AM 59.2°F15.1°C 30.7°F-0.7°C 34% Calm Calm -- -338605.1 mb 0.00 in0.0 mm 0.00 in/hr0.0 mm/hr 0.00 in0.0 mm
02:57 AM 59.2°F15.1°C 30.0°F-1.1°C 33% Calm Calm 0.9 mph1.4 kmh -338605.1 mb 0.00 in0.0 mm 0.00 in/hr0.0 mm/hr 0.00 in0.0 mm
03:02 AM 58.8°F14.9°C 30.6°F-0.8°C 34% 0.9 mph S1.4 kmh S 2.0 mph3.2 kmh -338605.1 mb 0.00 in0.0 mm 0.00 in/hr0.0 mm/hr 0.00 in0.0 mm
03:07 AM 58.8°F14.9°C 30.6°F-0.8°C 34% 2.9 mph S4.7 kmh S 4.0 mph6.4 kmh -338605.1 mb 0.00 in0.0 mm 0.00 in/hr0.0 mm/hr 0.00 in0.0 mm
03:12 AM 58.6°F14.8°C 30.4°F-0.9°C 34% 4.0 mph SW6.4 kmh SW 2.0 mph3.2 kmh -338605.1 mb 0.00 in0.0 mm 0.00 in/hr0.0 mm/hr 0.00 in0.0 mm
03:17 AM 58.6°F14.8°C 30.4°F-0.9°C 34% 4.0 mph SW6.4 kmh SW 0.9 mph1.4 kmh -338605.1 mb 0.00 in0.0 mm 0.00 in/hr0.0 mm/hr 0.00 in0.0 mm
03:22 AM 58.6°F14.8°C 30.4°F-0.9°C 34% 2.9 mph S4.7 kmh S 2.0 mph3.2 kmh -338605.1 mb 0.00 in0.0 mm 0.00 in/hr0.0 mm/hr 0.00 in0.0 mm
03:27 AM 58.6°F14.8°C 31.1°F-0.5°C 35% 2.0 mph S3.2 kmh S -- -338605.1 mb 0.00 in0.0 mm 0.00 in/hr0.0 mm/hr 0.00 in0.0 mm
03:32 AM 58.6°F14.8°C 31.1°F-0.5°C 35% 0.9 mph S1.4 kmh S 0.9 mph1.4 kmh -338605.1 mb 0.00 in0.0 mm 0.00 in/hr0.0 mm/hr 0.00 in0.0 mm
03:37 AM 58.6°F14.8°C 30.4°F-0.9°C 34% 0.9 mph S1.4 kmh S 2.0 mph3.2 kmh -338605.1 mb 0.00 in0.0 mm 0.00 in/hr0.0 mm/hr 0.00 in0.0 mm
03:42 AM 58.5°F14.7°C 30.9°F-0.6°C 35% 2.0 mph S3.2 kmh S 0.9 mph1.4 kmh -338605.1 mb 0.00 in0.0 mm 0.00 in/hr0.0 mm/hr 0.00 in0.0 mm
03:47 AM 58.5°F14.7°C 30.2°F-1.0°C 34% 0.9 mph S1.4 kmh S -- -338605.1 mb 0.00 in0.0 mm 0.00 in/hr0.0 mm/hr 0.00 in0.0 mm
03:52 AM 58.3°F14.6°C 30.7°F-0.7°C 35% Calm Calm 2.0 mph3.2 kmh -338605.1 mb 0.00 in0.0 mm 0.00 in/hr0.0 mm/hr 0.00 in0.0 mm
03:57 AM 58.3°F14.6°C 32.2°F0.1°C 37% 0.9 mph S1.4 kmh S 2.9 mph4.7 kmh -338605.1 mb 0.00 in0.0 mm 0.00 in/hr0.0 mm/hr 0.00 in0.0 mm
04:02 AM 57.9°F14.4°C 31.8°F-0.1°C 37% 2.9 mph S4.7 kmh S 2.9 mph4.7 kmh -338605.1 mb 0.00 in0.0 mm 0.00 in/hr0.0 mm/hr 0.00 in0.0 mm
04:07 AM 57.7°F14.3°C 30.2°F-1.0°C 35% 2.9 mph S4.7 kmh S 2.9 mph4.7 kmh -338605.1 mb 0.00 in0.0 mm 0.00 in/hr0.0 mm/hr 0.00 in0.0 mm
04:12 AM 57.7°F14.3°C 30.2°F-1.0°C 35% 2.9 mph S4.7 kmh S -- -338605.1 mb 0.00 in0.0 mm 0.00 in/hr0.0 mm/hr 0.00 in0.0 mm
04:17 AM 57.6°F14.2°C 30.0°F-1.1°C 35% 0.9 mph S1.4 kmh S -- -338605.1 mb 0.00 in0.0 mm 0.00 in/hr0.0 mm/hr 0.00 in0.0 mm
04:22 AM 57.6°F14.2°C 30.0°F-1.1°C 35% 0.9 mph S1.4 kmh S -- -338605.1 mb 0.00 in0.0 mm 0.00 in/hr0.0 mm/hr 0.00 in0.0 mm
04:27 AM 57.4°F14.1°C 30.6°F-0.8°C 36% 0.9 mph S1.4 kmh S 0.9 mph1.4 kmh -338605.1 mb 0.00 in0.0 mm 0.00 in/hr0.0 mm/hr 0.00 in0.0 mm
04:32 AM 57.0°F13.9°C 30.9°F-0.6°C 37% 0.9 mph S1.4 kmh S 4.0 mph6.4 kmh -338605.1 mb 0.00 in0.0 mm 0.00 in/hr0.0 mm/hr 0.00 in0.0 mm
04:37 AM 56.8°F13.8°C 30.2°F-1.0°C 36% 2.9 mph S4.7 kmh S 6.0 mph9.7 kmh -338605.1 mb 0.00 in0.0 mm 0.00 in/hr0.0 mm/hr 0.00 in0.0 mm
04:42 AM 56.8°F13.8°C 30.2°F-1.0°C 36% 4.9 mph S7.9 kmh S 4.9 mph7.9 kmh -338605.1 mb 0.00 in0.0 mm 0.00 in/hr0.0 mm/hr 0.00 in0.0 mm
04:47 AM 56.8°F13.8°C 30.2°F-1.0°C 36% 4.0 mph S6.4 kmh S 4.0 mph6.4 kmh -338605.1 mb 0.00 in0.0 mm 0.00 in/hr0.0 mm/hr 0.00 in0.0 mm
04:52 AM 57.0°F13.9°C 29.7°F-1.3°C 35% 4.0 mph S6.4 kmh S 4.0 mph6.4 kmh -338605.1 mb 0.00 in0.0 mm 0.00 in/hr0.0 mm/hr 0.00 in0.0 mm
04:57 AM 57.0°F13.9°C 29.7°F-1.3°C 35% 4.0 mph S6.4 kmh S 4.0 mph6.4 kmh -338605.1 mb 0.00 in0.0 mm 0.00 in/hr0.0 mm/hr 0.00 in0.0 mm
05:02 AM 56.8°F13.8°C 30.2°F-1.0°C 36% 4.0 mph WNW6.4 kmh WNW 4.9 mph7.9 kmh -338605.1 mb 0.00 in0.0 mm 0.00 in/hr0.0 mm/hr 0.00 in0.0 mm
05:07 AM 56.8°F13.8°C 30.2°F-1.0°C 36% 4.9 mph NW7.9 kmh NW 4.9 mph7.9 kmh -338605.1 mb 0.00 in0.0 mm 0.00 in/hr0.0 mm/hr 0.00 in0.0 mm
05:12 AM 56.8°F13.8°C 30.2°F-1.0°C 36% 4.9 mph NW7.9 kmh NW 2.9 mph4.7 kmh -338605.1 mb 0.00 in0.0 mm 0.00 in/hr0.0 mm/hr 0.00 in0.0 mm
05:17 AM 56.8°F13.8°C 30.2°F-1.0°C 36% 4.0 mph NW6.4 kmh NW 4.0 mph6.4 kmh -338605.1 mb 0.00 in0.0 mm 0.00 in/hr0.0 mm/hr 0.00 in0.0 mm
05:22 AM 57.0°F13.9°C 30.4°F-0.9°C 36% 2.9 mph NW4.7 kmh NW 4.0 mph6.4 kmh -338605.1 mb 0.00 in0.0 mm 0.00 in/hr0.0 mm/hr 0.00 in0.0 mm
05:27 AM 57.2°F14.0°C 30.6°F-0.8°C 36% 2.9 mph NW4.7 kmh NW -- -338605.1 mb 0.00 in0.0 mm 0.00 in/hr0.0 mm/hr 0.00 in0.0 mm
05:32 AM 57.0°F13.9°C 30.4°F-0.9°C 36% 2.0 mph NW3.2 kmh NW 2.9 mph4.7 kmh -338605.1 mb 0.00 in0.0 mm 0.00 in/hr0.0 mm/hr 0.00 in0.0 mm
05:37 AM 57.0°F13.9°C 29.7°F-1.3°C 35% 2.0 mph NW3.2 kmh NW -- -338605.1 mb 0.00 in0.0 mm 0.00 in/hr0.0 mm/hr 0.00 in0.0 mm
05:42 AM 56.8°F13.8°C 30.9°F-0.6°C 37% 0.9 mph NW1.4 kmh NW -- -338605.1 mb 0.00 in0.0 mm 0.00 in/hr0.0 mm/hr 0.00 in0.0 mm
05:47 AM 56.8°F13.8°C 31.5°F-0.3°C 38% Calm Calm 2.0 mph3.2 kmh -338605.1 mb 0.00 in0.0 mm 0.00 in/hr0.0 mm/hr 0.00 in0.0 mm
05:52 AM 56.5°F13.6°C 32.4°F0.2°C 40% 0.9 mph NW1.4 kmh NW 2.0 mph3.2 kmh -338605.1 mb 0.00 in0.0 mm 0.00 in/hr0.0 mm/hr 0.00 in0.0 mm
05:57 AM 56.1°F13.4°C 32.2°F0.1°C 40% 2.0 mph NW3.2 kmh NW 2.0 mph3.2 kmh -338605.1 mb 0.00 in0.0 mm 0.00 in/hr0.0 mm/hr 0.00 in0.0 mm
06:02 AM 55.9°F13.3°C 33.8°F1.0°C 43% 2.0 mph NW3.2 kmh NW 2.9 mph4.7 kmh -338605.1 mb 0.00 in0.0 mm 0.00 in/hr0.0 mm/hr 0.00 in0.0 mm
06:07 AM 55.8°F13.2°C 29.8°F-1.2°C 37% 2.9 mph N4.7 kmh N 2.9 mph4.7 kmh -338605.1 mb 0.00 in0.0 mm 0.00 in/hr0.0 mm/hr 0.00 in0.0 mm
06:12 AM 55.2°F12.9°C 29.5°F-1.4°C 37% 2.9 mph N4.7 kmh N 2.9 mph4.7 kmh -338605.1 mb 0.00 in0.0 mm 0.00 in/hr0.0 mm/hr 0.00 in0.0 mm
06:17 AM 55.0°F12.8°C 28.6°F-1.9°C 36% 2.0 mph N3.2 kmh N 0.9 mph1.4 kmh -338605.1 mb 0.00 in0.0 mm 0.00 in/hr0.0 mm/hr 0.00 in0.0 mm
06:22 AM 54.7°F12.6°C 30.2°F-1.0°C 39% 0.9 mph N1.4 kmh N -- -338605.1 mb 0.00 in0.0 mm 0.00 in/hr0.0 mm/hr 0.00 in0.0 mm
06:27 AM 54.3°F12.4°C 29.3°F-1.5°C 38% Calm Calm 0.9 mph1.4 kmh -338605.1 mb 0.00 in0.0 mm 0.00 in/hr0.0 mm/hr 0.00 in0.0 mm
06:32 AM 54.1°F12.3°C 29.1°F-1.6°C 38% 0.9 mph 1.4 kmh 2.0 mph3.2 kmh -338605.1 mb 0.00 in0.0 mm 0.00 in/hr0.0 mm/hr 0.00 in0.0 mm
06:37 AM 54.0°F12.2°C 28.9°F-1.7°C 38% 0.9 mph 1.4 kmh 0.9 mph1.4 kmh -338605.1 mb 0.00 in0.0 mm 0.00 in/hr0.0 mm/hr 0.00 in0.0 mm
06:42 AM 53.8°F12.1°C 29.5°F-1.4°C 39% 0.9 mph 1.4 kmh 0.9 mph1.4 kmh -338605.1 mb 0.00 in0.0 mm 0.00 in/hr0.0 mm/hr 0.00 in0.0 mm
06:47 AM 53.6°F12.0°C 29.3°F-1.5°C 39% 0.9 mph 1.4 kmh 0.9 mph1.4 kmh -338605.1 mb 0.00 in0.0 mm 0.00 in/hr0.0 mm/hr 0.00 in0.0 mm
06:52 AM 53.4°F11.9°C 29.7°F-1.3°C 40% 2.0 mph 3.2 kmh 2.0 mph3.2 kmh -338605.1 mb 0.00 in0.0 mm 0.00 in/hr0.0 mm/hr 0.00 in0.0 mm
06:57 AM 53.2°F11.8°C 30.2°F-1.0°C 41% 2.0 mph 3.2 kmh 0.9 mph1.4 kmh -338605.1 mb 0.00 in0.0 mm 0.00 in/hr0.0 mm/hr 0.00 in0.0 mm
07:02 AM 53.1°F11.7°C 30.6°F-0.8°C 42% 0.9 mph N1.4 kmh N 2.0 mph3.2 kmh -338605.1 mb 0.00 in0.0 mm 0.00 in/hr0.0 mm/hr 0.00 in0.0 mm
07:07 AM 52.9°F11.6°C 30.9°F-0.6°C 43% 2.0 mph WNW3.2 kmh WNW 4.0 mph6.4 kmh -338605.1 mb 0.00 in0.0 mm 0.00 in/hr0.0 mm/hr 0.00 in0.0 mm
07:12 AM 52.9°F11.6°C 30.9°F-0.6°C 43% 2.9 mph W4.7 kmh W 2.9 mph4.7 kmh -338605.1 mb 0.00 in0.0 mm 0.00 in/hr0.0 mm/hr 0.00 in0.0 mm
07:17 AM 52.9°F11.6°C 30.4°F-0.9°C 42% 2.0 mph W3.2 kmh W -- -338605.1 mb 0.00 in0.0 mm 0.00 in/hr0.0 mm/hr 0.00 in0.0 mm
07:22 AM 52.9°F11.6°C 30.9°F-0.6°C 43% 0.9 mph W1.4 kmh W -- -338605.1 mb 0.00 in0.0 mm 0.00 in/hr0.0 mm/hr 0.00 in0.0 mm
07:27 AM 53.1°F11.7°C 31.1°F-0.5°C 43% Calm Calm -- -338605.1 mb 0.00 in0.0 mm 0.00 in/hr0.0 mm/hr 0.00 in0.0 mm
07:32 AM 53.1°F11.7°C 31.6°F-0.2°C 44% 0.9 mph W1.4 kmh W 0.9 mph1.4 kmh -338605.1 mb 0.00 in0.0 mm 0.00 in/hr0.0 mm/hr 0.00 in0.0 mm
07:37 AM 53.1°F11.7°C 32.4°F0.2°C 45% 0.9 mph W1.4 kmh W 2.9 mph4.7 kmh -338605.1 mb 0.00 in0.0 mm 0.00 in/hr0.0 mm/hr 0.00 in0.0 mm
07:42 AM 53.2°F11.8°C 31.8°F-0.1°C 44% 2.9 mph WSW4.7 kmh WSW 2.9 mph4.7 kmh -338605.1 mb 0.00 in0.0 mm 0.00 in/hr0.0 mm/hr 0.00 in0.0 mm
07:47 AM 53.2°F11.8°C 31.3°F-0.4°C 43% 2.9 mph SW4.7 kmh SW 2.0 mph3.2 kmh -338605.1 mb 0.00 in0.0 mm 0.00 in/hr0.0 mm/hr 0.00 in0.0 mm
07:52 AM 53.6°F12.0°C 31.1°F-0.5°C 42% 2.0 mph SW3.2 kmh SW 0.9 mph1.4 kmh -338605.1 mb 0.00 in0.0 mm 0.00 in/hr0.0 mm/hr 0.00 in0.0 mm
07:57 AM 54.0°F12.2°C 31.5°F-0.3°C 42% 2.0 mph SW3.2 kmh SW 2.0 mph3.2 kmh -338605.1 mb 0.00 in0.0 mm 0.00 in/hr0.0 mm/hr 0.00 in0.0 mm
08:02 AM 54.1°F12.3°C 30.9°F-0.6°C 41% 2.0 mph SW3.2 kmh SW -- -338605.1 mb 0.00 in0.0 mm 0.00 in/hr0.0 mm/hr 0.00 in0.0 mm
08:07 AM 54.5°F12.5°C 31.3°F-0.4°C 41% 0.9 mph SW1.4 kmh SW 0.9 mph1.4 kmh -338605.1 mb 0.00 in0.0 mm 0.00 in/hr0.0 mm/hr 0.00 in0.0 mm
08:12 AM 54.9°F12.7°C 31.6°F-0.2°C 41% 0.9 mph SW1.4 kmh SW 2.0 mph3.2 kmh -338605.1 mb 0.00 in0.0 mm 0.00 in/hr0.0 mm/hr 0.00 in0.0 mm
08:17 AM 55.2°F12.9°C 31.3°F-0.4°C 40% 0.9 mph SW1.4 kmh SW 2.0 mph3.2 kmh -338605.1 mb 0.00 in0.0 mm 0.00 in/hr0.0 mm/hr 0.00 in0.0 mm
08:22 AM 55.8°F13.2°C 31.1°F-0.5°C 39% 2.0 mph SW3.2 kmh SW 2.9 mph4.7 kmh -338605.1 mb 0.00 in0.0 mm 0.00 in/hr0.0 mm/hr 0.00 in0.0 mm
08:27 AM 56.5°F13.6°C 31.1°F-0.5°C 38% 2.9 mph SSW4.7 kmh SSW 2.0 mph3.2 kmh -338605.1 mb 0.00 in0.0 mm 0.00 in/hr0.0 mm/hr 0.00 in0.0 mm
08:32 AM 56.8°F13.8°C 30.9°F-0.6°C 37% 2.0 mph SSW3.2 kmh SSW -- -338605.1 mb 0.00 in0.0 mm 0.00 in/hr0.0 mm/hr 0.00 in0.0 mm
08:37 AM 57.4°F14.1°C 31.3°F-0.4°C 37% 0.9 mph SSW1.4 kmh SSW -- -338605.1 mb 0.00 in0.0 mm 0.00 in/hr0.0 mm/hr 0.00 in0.0 mm
08:42 AM 57.7°F14.3°C 31.6°F-0.2°C 37% Calm Calm -- -338605.1 mb 0.00 in0.0 mm 0.00 in/hr0.0 mm/hr 0.00 in0.0 mm
08:47 AM 57.9°F14.4°C 32.5°F0.3°C 38% Calm Calm -- -338605.1 mb 0.00 in0.0 mm 0.00 in/hr0.0 mm/hr 0.00 in0.0 mm
08:52 AM 58.5°F14.7°C 31.6°F-0.2°C 36% Calm Calm -- -338605.1 mb 0.00 in0.0 mm 0.00 in/hr0.0 mm/hr 0.00 in0.0 mm
08:57 AM 58.8°F14.9°C 31.3°F-0.4°C 35% Calm Calm -- -338605.1 mb 0.00 in0.0 mm 0.00 in/hr0.0 mm/hr 0.00 in0.0 mm
09:02 AM 59.5°F15.3°C 31.8°F-0.1°C 35% Calm Calm -- -338605.1 mb 0.00 in0.0 mm 0.00 in/hr0.0 mm/hr 0.00 in0.0 mm
09:07 AM 60.4°F15.8°C 32.0°F0.0°C 34% Calm Calm 0.9 mph1.4 kmh -338605.1 mb 0.00 in0.0 mm 0.00 in/hr0.0 mm/hr 0.00 in0.0 mm
09:12 AM 61.3°F16.3°C 32.0°F0.0°C 33% 0.9 mph SSW1.4 kmh SSW 0.9 mph1.4 kmh -338605.1 mb 0.00 in0.0 mm 0.00 in/hr0.0 mm/hr 0.00 in0.0 mm
09:17 AM 62.1°F16.7°C 32.5°F0.3°C 33% 0.9 mph SSW1.4 kmh SSW 0.9 mph1.4 kmh -338605.1 mb 0.00 in0.0 mm 0.00 in/hr0.0 mm/hr 0.00 in0.0 mm
09:22 AM 62.8°F17.1°C 32.5°F0.3°C 32% 0.9 mph SSW1.4 kmh SSW -- -338605.1 mb 0.00 in0.0 mm 0.00 in/hr0.0 mm/hr 0.00 in0.0 mm
09:27 AM 63.1°F17.3°C 32.7°F0.4°C 32% Calm Calm -- -338605.1 mb 0.00 in0.0 mm 0.00 in/hr0.0 mm/hr 0.00 in0.0 mm
09:32 AM 63.7°F17.6°C 33.3°F0.7°C 32% Calm Calm -- -338605.1 mb 0.00 in0.0 mm 0.00 in/hr0.0 mm/hr 0.00 in0.0 mm
09:37 AM 64.0°F17.8°C 32.7°F0.4°C 31% Calm Calm -- -338605.1 mb 0.00 in0.0 mm 0.00 in/hr0.0 mm/hr 0.00 in0.0 mm
09:42 AM 64.8°F18.2°C 33.4°F0.8°C 31% Calm Calm 0.9 mph1.4 kmh -338605.1 mb 0.00 in0.0 mm 0.00 in/hr0.0 mm/hr 0.00 in0.0 mm
09:47 AM 65.3°F18.5°C 33.1°F0.6°C 30% Calm Calm -- -338605.1 mb 0.00 in0.0 mm 0.00 in/hr0.0 mm/hr 0.00 in0.0 mm
09:52 AM 66.2°F19.0°C 33.1°F0.6°C 29% 0.9 mph SE1.4 kmh SE 0.9 mph1.4 kmh -338605.1 mb 0.00 in0.0 mm 0.00 in/hr0.0 mm/hr 0.00 in0.0 mm
09:57 AM 66.4°F19.1°C 34.0°F1.1°C 30% 0.9 mph SE1.4 kmh SE -- -338605.1 mb 0.00 in0.0 mm 0.00 in/hr0.0 mm/hr 0.00 in0.0 mm
10:02 AM 66.7°F19.3°C 33.4°F0.8°C 29% 0.9 mph SE1.4 kmh SE 2.0 mph3.2 kmh -338605.1 mb 0.00 in0.0 mm 0.00 in/hr0.0 mm/hr 0.00 in0.0 mm
10:07 AM 68.2°F20.1°C 33.8°F1.0°C 28% 0.9 mph SE1.4 kmh SE -- -338605.1 mb 0.00 in0.0 mm 0.00 in/hr0.0 mm/hr 0.00 in0.0 mm
10:12 AM 69.4°F20.8°C 34.0°F1.1°C 27% 2.0 mph NE3.2 kmh NE 2.9 mph4.7 kmh -338605.1 mb 0.00 in0.0 mm 0.00 in/hr0.0 mm/hr 0.00 in0.0 mm
10:17 AM 70.0°F21.1°C 34.5°F1.4°C 27% 2.9 mph NE4.7 kmh NE 4.9 mph7.9 kmh -338605.1 mb 0.00 in0.0 mm 0.00 in/hr0.0 mm/hr 0.00 in0.0 mm
10:22 AM 70.0°F21.1°C 34.5°F1.4°C 27% 2.9 mph NE4.7 kmh NE 0.9 mph1.4 kmh -338605.1 mb 0.00 in0.0 mm 0.00 in/hr0.0 mm/hr 0.00 in0.0 mm
10:27 AM 70.3°F21.3°C 34.7°F1.5°C 27% 2.9 mph NE4.7 kmh NE 4.0 mph6.4 kmh -338605.1 mb 0.00 in0.0 mm 0.00 in/hr0.0 mm/hr 0.00 in0.0 mm
10:32 AM 71.2°F21.8°C 33.6°F0.9°C 25% 2.9 mph NE4.7 kmh NE 2.9 mph4.7 kmh -338605.1 mb 0.00 in0.0 mm 0.00 in/hr0.0 mm/hr 0.00 in0.0 mm
10:37 AM 72.0°F22.2°C 34.2°F1.2°C 25% 2.9 mph NE4.7 kmh NE 4.0 mph6.4 kmh -338605.1 mb 0.00 in0.0 mm 0.00 in/hr0.0 mm/hr 0.00 in0.0 mm
10:42 AM 72.3°F22.4°C 33.4°F0.8°C 24% 2.9 mph NE4.7 kmh NE 2.0 mph3.2 kmh -338605.1 mb 0.00 in0.0 mm 0.00 in/hr0.0 mm/hr 0.00 in0.0 mm
10:47 AM 72.9°F22.7°C 34.0°F1.1°C 24% 2.9 mph NE4.7 kmh NE 4.0 mph6.4 kmh -338605.1 mb 0.00 in0.0 mm 0.00 in/hr0.0 mm/hr 0.00 in0.0 mm
10:52 AM 72.9°F22.7°C 32.9°F0.5°C 23% 2.9 mph NE4.7 kmh NE 0.9 mph1.4 kmh -338605.1 mb 0.00 in0.0 mm 0.00 in/hr0.0 mm/hr 0.00 in0.0 mm
10:57 AM 73.2°F22.9°C 32.2°F0.1°C 22% 2.9 mph NE4.7 kmh NE 2.0 mph3.2 kmh -338605.1 mb 0.00 in0.0 mm 0.00 in/hr0.0 mm/hr 0.00 in0.0 mm
11:02 AM 73.6°F23.1°C 32.4°F0.2°C 22% 2.9 mph NE4.7 kmh NE 0.9 mph1.4 kmh -338605.1 mb 0.00 in0.0 mm 0.00 in/hr0.0 mm/hr 0.00 in0.0 mm
11:07 AM 73.9°F23.3°C 32.7°F0.4°C 22% 2.9 mph NE4.7 kmh NE 2.0 mph3.2 kmh -338605.1 mb 0.00 in0.0 mm 0.00 in/hr0.0 mm/hr 0.00 in0.0 mm
11:12 AM 74.5°F23.6°C 33.1°F0.6°C 22% 2.9 mph NE4.7 kmh NE 4.0 mph6.4 kmh -338605.1 mb 0.00 in0.0 mm 0.00 in/hr0.0 mm/hr 0.00 in0.0 mm
11:17 AM 74.7°F23.7°C 33.3°F0.7°C 22% 4.0 mph NE6.4 kmh NE 4.9 mph7.9 kmh -338605.1 mb 0.00 in0.0 mm 0.00 in/hr0.0 mm/hr 0.00 in0.0 mm
11:22 AM 74.8°F23.8°C 32.4°F0.2°C 21% 4.0 mph NE6.4 kmh NE 4.0 mph6.4 kmh -338605.1 mb 0.00 in0.0 mm 0.00 in/hr0.0 mm/hr 0.00 in0.0 mm
11:27 AM 75.0°F23.9°C 32.4°F0.2°C 21% 2.9 mph NE4.7 kmh NE 0.9 mph1.4 kmh -338605.1 mb 0.00 in0.0 mm 0.00 in/hr0.0 mm/hr 0.00 in0.0 mm
11:32 AM 75.2°F24.0°C 32.5°F0.3°C 21% 2.9 mph NE4.7 kmh NE 2.0 mph3.2 kmh -338605.1 mb 0.00 in0.0 mm 0.00 in/hr0.0 mm/hr 0.00 in0.0 mm
11:37 AM 75.4°F24.1°C 32.7°F0.4°C 21% 2.0 mph NE3.2 kmh NE 0.9 mph1.4 kmh -338605.1 mb 0.00 in0.0 mm 0.00 in/hr0.0 mm/hr 0.00 in0.0 mm
11:42 AM 75.4°F24.1°C 32.7°F0.4°C 21% 2.0 mph NE3.2 kmh NE -- -338605.1 mb 0.00 in0.0 mm 0.00 in/hr0.0 mm/hr 0.00 in0.0 mm
11:47 AM 75.7°F24.3°C 33.1°F0.6°C 21% 2.0 mph E3.2 kmh E 4.9 mph7.9 kmh -338605.1 mb 0.00 in0.0 mm 0.00 in/hr0.0 mm/hr 0.00 in0.0 mm
11:52 AM 76.5°F24.7°C 32.4°F0.2°C 20% 2.0 mph E3.2 kmh E -- -338605.1 mb 0.00 in0.0 mm 0.00 in/hr0.0 mm/hr 0.00 in0.0 mm
11:57 AM 76.6°F24.8°C 32.5°F0.3°C 20% 0.9 mph E1.4 kmh E -- -338605.1 mb 0.00 in0.0 mm 0.00 in/hr0.0 mm/hr 0.00 in0.0 mm
12:02 PM 76.8°F24.9°C 32.7°F0.4°C 20% 0.9 mph E1.4 kmh E 2.9 mph4.7 kmh -338605.1 mb 0.00 in0.0 mm 0.00 in/hr0.0 mm/hr 0.00 in0.0 mm
12:07 PM 77.2°F25.1°C 31.8°F-0.1°C 19% 2.0 mph ENE3.2 kmh ENE 2.9 mph4.7 kmh -338605.1 mb 0.00 in0.0 mm 0.00 in/hr0.0 mm/hr 0.00 in0.0 mm
12:12 PM 77.5°F25.3°C 32.0°F0.0°C 19% 2.0 mph NE3.2 kmh NE 2.0 mph3.2 kmh -338605.1 mb 0.00 in0.0 mm 0.00 in/hr0.0 mm/hr 0.00 in0.0 mm
12:17 PM 77.9°F25.5°C 32.4°F0.2°C 19% 2.0 mph NE3.2 kmh NE 0.9 mph1.4 kmh -338605.1 mb 0.00 in0.0 mm 0.00 in/hr0.0 mm/hr 0.00 in0.0 mm
12:22 PM 78.3°F25.7°C 32.5°F0.3°C 19% 0.9 mph ENE1.4 kmh ENE 2.9 mph4.7 kmh -338605.1 mb 0.00 in0.0 mm 0.00 in/hr0.0 mm/hr 0.00 in0.0 mm
12:27 PM 78.4°F25.8°C 32.7°F0.4°C 19% 2.0 mph ENE3.2 kmh ENE 2.0 mph3.2 kmh -338605.1 mb 0.00 in0.0 mm 0.00 in/hr0.0 mm/hr 0.00 in0.0 mm
12:32 PM 79.0°F26.1°C 31.8°F-0.1°C 18% 2.0 mph NE3.2 kmh NE 2.9 mph4.7 kmh -338605.1 mb 0.00 in0.0 mm 0.00 in/hr0.0 mm/hr 0.00 in0.0 mm
12:37 PM 79.2°F26.2°C 32.0°F0.0°C 18% 2.0 mph NE3.2 kmh NE -- -338605.1 mb 0.00 in0.0 mm 0.00 in/hr0.0 mm/hr 0.00 in0.0 mm
12:42 PM 79.2°F26.2°C 32.0°F0.0°C 18% 2.0 mph N3.2 kmh N -- -338605.1 mb 0.00 in0.0 mm 0.00 in/hr0.0 mm/hr 0.00 in0.0 mm
12:47 PM 79.3°F26.3°C 32.2°F0.1°C 18% 2.0 mph ENE3.2 kmh ENE 2.0 mph3.2 kmh -338605.1 mb 0.00 in0.0 mm 0.00 in/hr0.0 mm/hr 0.00 in0.0 mm
12:52 PM 79.9°F26.6°C 31.1°F-0.5°C 17% 2.0 mph ENE3.2 kmh ENE 0.9 mph1.4 kmh -338605.1 mb 0.00 in0.0 mm 0.00 in/hr0.0 mm/hr 0.00 in0.0 mm
12:57 PM 80.2°F26.8°C 31.5°F-0.3°C 17% 2.0 mph ENE3.2 kmh ENE 2.0 mph3.2 kmh -338605.1 mb 0.00 in0.0 mm 0.00 in/hr0.0 mm/hr 0.00 in0.0 mm
01:02 PM 80.6°F27.0°C 30.2°F-1.0°C 16% 2.9 mph E4.7 kmh E 2.0 mph3.2 kmh -338605.1 mb 0.00 in0.0 mm 0.00 in/hr0.0 mm/hr 0.00 in0.0 mm
01:07 PM 81.0°F27.2°C 30.6°F-0.8°C 16% 4.0 mph E6.4 kmh E 4.9 mph7.9 kmh -338605.1 mb 0.00 in0.0 mm 0.00 in/hr0.0 mm/hr 0.00 in0.0 mm
01:12 PM 81.7°F27.6°C 31.1°F-0.5°C 16% 2.9 mph E4.7 kmh E 2.9 mph4.7 kmh -338605.1 mb 0.00 in0.0 mm 0.00 in/hr0.0 mm/hr 0.00 in0.0 mm
01:17 PM 81.7°F27.6°C 29.5°F-1.4°C 15% 2.0 mph NE3.2 kmh NE 2.0 mph3.2 kmh -338605.1 mb 0.00 in0.0 mm 0.00 in/hr0.0 mm/hr 0.00 in0.0 mm
01:22 PM 81.9°F27.7°C 29.7°F-1.3°C 15% 2.0 mph E3.2 kmh E -- -338605.1 mb 0.00 in0.0 mm 0.00 in/hr0.0 mm/hr 0.00 in0.0 mm
01:27 PM 82.0°F27.8°C 28.2°F-2.1°C 14% 2.0 mph E3.2 kmh E 4.9 mph7.9 kmh -338605.1 mb 0.00 in0.0 mm 0.00 in/hr0.0 mm/hr 0.00 in0.0 mm
01:32 PM 82.6°F28.1°C 28.6°F-1.9°C 14% 4.0 mph SE6.4 kmh SE 2.9 mph4.7 kmh -338605.1 mb 0.00 in0.0 mm 0.00 in/hr0.0 mm/hr 0.00 in0.0 mm
01:37 PM 82.9°F28.3°C 28.8°F-1.8°C 14% 2.9 mph SE4.7 kmh SE 8.1 mph13.0 kmh -338605.1 mb 0.00 in0.0 mm 0.00 in/hr0.0 mm/hr 0.00 in0.0 mm
01:42 PM 83.1°F28.4°C 28.9°F-1.7°C 14% 2.0 mph ESE3.2 kmh ESE 2.0 mph3.2 kmh -338605.1 mb 0.00 in0.0 mm 0.00 in/hr0.0 mm/hr 0.00 in0.0 mm
01:47 PM 83.5°F28.6°C 29.3°F-1.5°C 14% 2.9 mph ESE4.7 kmh ESE 2.0 mph3.2 kmh -338605.1 mb 0.00 in0.0 mm 0.00 in/hr0.0 mm/hr 0.00 in0.0 mm
01:52 PM 83.7°F28.7°C 29.5°F-1.4°C 14% 2.0 mph S3.2 kmh S 4.0 mph6.4 kmh -338605.1 mb 0.00 in0.0 mm 0.00 in/hr0.0 mm/hr 0.00 in0.0 mm
01:57 PM 84.4°F29.1°C 24.1°F-4.4°C 11% 4.0 mph SSW6.4 kmh SSW 4.0 mph6.4 kmh -338605.1 mb 0.00 in0.0 mm 0.00 in/hr0.0 mm/hr 0.00 in0.0 mm
02:02 PM 84.9°F29.4°C 26.6°F-3.0°C 12% 6.0 mph S9.7 kmh S 6.9 mph11.1 kmh -338605.1 mb 0.00 in0.0 mm 0.00 in/hr0.0 mm/hr 0.00 in0.0 mm
02:07 PM 85.5°F29.7°C 25.0°F-3.9°C 11% 6.9 mph S11.1 kmh S 6.0 mph9.7 kmh -338605.1 mb 0.00 in0.0 mm 0.00 in/hr0.0 mm/hr 0.00 in0.0 mm
02:12 PM 85.8°F29.9°C 25.2°F-3.8°C 11% 8.1 mph S13.0 kmh S 8.1 mph13.0 kmh -338605.1 mb 0.00 in0.0 mm 0.00 in/hr0.0 mm/hr 0.00 in0.0 mm
02:17 PM 86.4°F30.2°C 25.7°F-3.5°C 11% 8.9 mph S14.3 kmh S 6.9 mph11.1 kmh -338605.1 mb 0.00 in0.0 mm 0.00 in/hr0.0 mm/hr 0.00 in0.0 mm
02:22 PM 86.5°F30.3°C 27.9°F-2.3°C 12% 8.1 mph SSW13.0 kmh SSW 10.1 mph16.3 kmh -338605.1 mb 0.00 in0.0 mm 0.00 in/hr0.0 mm/hr 0.00 in0.0 mm
02:27 PM 86.7°F30.4°C 25.9°F-3.4°C 11% 8.9 mph SSW14.3 kmh SSW 6.0 mph9.7 kmh -338605.1 mb 0.00 in0.0 mm 0.00 in/hr0.0 mm/hr 0.00 in0.0 mm
02:32 PM 86.7°F30.4°C 28.0°F-2.2°C 12% 8.9 mph SW14.3 kmh SW 11.0 mph17.7 kmh -338605.1 mb 0.00 in0.0 mm 0.00 in/hr0.0 mm/hr 0.00 in0.0 mm
02:37 PM 86.9°F30.5°C 26.1°F-3.3°C 11% 10.1 mph S16.3 kmh S 17.9 mph28.8 kmh -338605.1 mb 0.00 in0.0 mm 0.00 in/hr0.0 mm/hr 0.00 in0.0 mm
02:42 PM 87.1°F30.6°C 26.2°F-3.2°C 11% 11.0 mph SSW17.7 kmh SSW 6.0 mph9.7 kmh -338605.1 mb 0.00 in0.0 mm 0.00 in/hr0.0 mm/hr 0.00 in0.0 mm
02:47 PM 87.3°F30.7°C 24.1°F-4.4°C 10% 10.1 mph SW16.3 kmh SW 11.0 mph17.7 kmh -338605.1 mb 0.00 in0.0 mm 0.00 in/hr0.0 mm/hr 0.00 in0.0 mm
02:52 PM 87.1°F30.6°C 26.2°F-3.2°C 11% 11.0 mph S17.7 kmh S 14.1 mph22.7 kmh -338605.1 mb 0.00 in0.0 mm 0.00 in/hr0.0 mm/hr 0.00 in0.0 mm
02:57 PM 87.1°F30.6°C 26.2°F-3.2°C 11% 10.1 mph SW16.3 kmh SW 6.9 mph11.1 kmh -338605.1 mb 0.00 in0.0 mm 0.00 in/hr0.0 mm/hr 0.00 in0.0 mm
03:02 PM 87.1°F30.6°C 26.2°F-3.2°C 11% 10.1 mph S16.3 kmh S 14.1 mph22.7 kmh -338605.1 mb 0.00 in0.0 mm 0.00 in/hr0.0 mm/hr 0.00 in0.0 mm
03:07 PM 87.1°F30.6°C 26.2°F-3.2°C 11% 10.1 mph S16.3 kmh S 10.1 mph16.3 kmh -338605.1 mb 0.00 in0.0 mm 0.00 in/hr0.0 mm/hr 0.00 in0.0 mm
03:12 PM 87.1°F30.6°C 26.2°F-3.2°C 11% 10.1 mph S16.3 kmh S 11.0 mph17.7 kmh -338605.1 mb 0.00 in0.0 mm 0.00 in/hr0.0 mm/hr 0.00 in0.0 mm
03:17 PM 87.1°F30.6°C 26.2°F-3.2°C 11% 11.0 mph S17.7 kmh S 11.0 mph17.7 kmh -338605.1 mb 0.00 in0.0 mm 0.00 in/hr0.0 mm/hr 0.00 in0.0 mm
03:22 PM 86.7°F30.4°C 23.7°F-4.6°C 10% 11.0 mph SSW17.7 kmh SSW 6.0 mph9.7 kmh -338605.1 mb 0.00 in0.0 mm 0.00 in/hr0.0 mm/hr 0.00 in0.0 mm
03:27 PM 86.7°F30.4°C 25.9°F-3.4°C 11% 8.9 mph S14.3 kmh S 10.1 mph16.3 kmh -338605.1 mb 0.00 in0.0 mm 0.00 in/hr0.0 mm/hr 0.00 in0.0 mm
03:32 PM 86.7°F30.4°C 23.7°F-4.6°C 10% 8.9 mph S14.3 kmh S 15.0 mph24.1 kmh -338605.1 mb 0.00 in0.0 mm 0.00 in/hr0.0 mm/hr 0.00 in0.0 mm
03:37 PM 86.7°F30.4°C 23.7°F-4.6°C 10% 11.0 mph SSW17.7 kmh SSW 11.0 mph17.7 kmh -338605.1 mb 0.00 in0.0 mm 0.00 in/hr0.0 mm/hr 0.00 in0.0 mm
03:42 PM 86.7°F30.4°C 23.7°F-4.6°C 10% 10.1 mph SW16.3 kmh SW 8.1 mph13.0 kmh -338605.1 mb 0.00 in0.0 mm 0.00 in/hr0.0 mm/hr 0.00 in0.0 mm
03:47 PM 86.7°F30.4°C 25.9°F-3.4°C 11% 10.1 mph SSW16.3 kmh SSW 6.0 mph9.7 kmh -338605.1 mb 0.00 in0.0 mm 0.00 in/hr0.0 mm/hr 0.00 in0.0 mm
03:52 PM 86.5°F30.3°C 25.9°F-3.4°C 11% 8.9 mph SW14.3 kmh SW 8.1 mph13.0 kmh -338605.1 mb 0.00 in0.0 mm 0.00 in/hr0.0 mm/hr 0.00 in0.0 mm
03:57 PM 86.7°F30.4°C 25.9°F-3.4°C 11% 8.1 mph SW13.0 kmh SW 6.9 mph11.1 kmh -338605.1 mb 0.00 in0.0 mm 0.00 in/hr0.0 mm/hr 0.00 in0.0 mm
04:02 PM 86.7°F30.4°C 25.9°F-3.4°C 11% 10.1 mph SW16.3 kmh SW 12.1 mph19.5 kmh -338605.1 mb 0.00 in0.0 mm 0.00 in/hr0.0 mm/hr 0.00 in0.0 mm
04:07 PM 86.5°F30.3°C 25.9°F-3.4°C 11% 11.0 mph S17.7 kmh S 11.0 mph17.7 kmh -338605.1 mb 0.00 in0.0 mm 0.00 in/hr0.0 mm/hr 0.00 in0.0 mm
04:12 PM 86.5°F30.3°C 25.9°F-3.4°C 11% 10.1 mph S16.3 kmh S 12.1 mph19.5 kmh -338605.1 mb 0.00 in0.0 mm 0.00 in/hr0.0 mm/hr 0.00 in0.0 mm
04:17 PM 86.5°F30.3°C 25.9°F-3.4°C 11% 8.9 mph SSW14.3 kmh SSW 4.0 mph6.4 kmh -338605.1 mb 0.00 in0.0 mm 0.00 in/hr0.0 mm/hr 0.00 in0.0 mm
04:22 PM 86.5°F30.3°C 25.9°F-3.4°C 11% 10.1 mph S16.3 kmh S 15.0 mph24.1 kmh -338605.1 mb 0.00 in0.0 mm 0.00 in/hr0.0 mm/hr 0.00 in0.0 mm
04:27 PM 86.5°F30.3°C 25.9°F-3.4°C 11% 12.1 mph S19.5 kmh S 14.1 mph22.7 kmh -338605.1 mb 0.00 in0.0 mm 0.00 in/hr0.0 mm/hr 0.00 in0.0 mm
04:32 PM 86.5°F30.3°C 25.9°F-3.4°C 11% 12.1 mph S19.5 kmh S 6.0 mph9.7 kmh -338605.1 mb 0.00 in0.0 mm 0.00 in/hr0.0 mm/hr 0.00 in0.0 mm
04:37 PM 86.5°F30.3°C 25.9°F-3.4°C 11% 10.1 mph SW16.3 kmh SW 4.9 mph7.9 kmh -338605.1 mb 0.00 in0.0 mm 0.00 in/hr0.0 mm/hr 0.00 in0.0 mm
04:42 PM 86.5°F30.3°C 25.9°F-3.4°C 11% 8.9 mph SW14.3 kmh SW 6.0 mph9.7 kmh -338605.1 mb 0.00 in0.0 mm 0.00 in/hr0.0 mm/hr 0.00 in0.0 mm
04:47 PM 86.5°F30.3°C 25.9°F-3.4°C 11% 10.1 mph SSW16.3 kmh SSW 10.1 mph16.3 kmh -338605.1 mb 0.00 in0.0 mm 0.00 in/hr0.0 mm/hr 0.00 in0.0 mm
04:52 PM 86.4°F30.2°C 25.7°F-3.5°C 11% 10.1 mph SW16.3 kmh SW 6.9 mph11.1 kmh -338605.1 mb 0.00 in0.0 mm 0.00 in/hr0.0 mm/hr 0.00 in0.0 mm
04:57 PM 86.2°F30.1°C 27.7°F-2.4°C 12% 10.1 mph S16.3 kmh S 12.1 mph19.5 kmh -338605.1 mb 0.00 in0.0 mm 0.00 in/hr0.0 mm/hr 0.00 in0.0 mm
05:02 PM 86.2°F30.1°C 27.7°F-2.4°C 12% 10.1 mph SSW16.3 kmh SSW 13.0 mph20.9 kmh -338605.1 mb 0.00 in0.0 mm 0.00 in/hr0.0 mm/hr 0.00 in0.0 mm
05:07 PM 86.0°F30.0°C 27.5°F-2.5°C 12% 11.0 mph SSW17.7 kmh SSW 6.9 mph11.1 kmh -338605.1 mb 0.00 in0.0 mm 0.00 in/hr0.0 mm/hr 0.00 in0.0 mm
05:12 PM 85.8°F29.9°C 27.3°F-2.6°C 12% 8.9 mph SW14.3 kmh SW 8.9 mph14.3 kmh -338605.1 mb 0.00 in0.0 mm 0.00 in/hr0.0 mm/hr 0.00 in0.0 mm
05:17 PM 85.6°F29.8°C 27.1°F-2.7°C 12% 8.1 mph SSW13.0 kmh SSW 8.9 mph14.3 kmh -338605.1 mb 0.00 in0.0 mm 0.00 in/hr0.0 mm/hr 0.00 in0.0 mm
05:22 PM 85.5°F29.7°C 27.1°F-2.7°C 12% 8.1 mph SSW13.0 kmh SSW 4.9 mph7.9 kmh -338605.1 mb 0.00 in0.0 mm 0.00 in/hr0.0 mm/hr 0.00 in0.0 mm
05:27 PM 85.3°F29.6°C 27.0°F-2.8°C 12% 6.9 mph SSW11.1 kmh SSW 6.0 mph9.7 kmh -338605.1 mb 0.00 in0.0 mm 0.00 in/hr0.0 mm/hr 0.00 in0.0 mm
05:32 PM 85.1°F29.5°C 26.8°F-2.9°C 12% 6.9 mph SSW11.1 kmh SSW 6.9 mph11.1 kmh -338605.1 mb 0.00 in0.0 mm 0.00 in/hr0.0 mm/hr 0.00 in0.0 mm
05:37 PM 84.7°F29.3°C 26.4°F-3.1°C 12% 6.9 mph SSW11.1 kmh SSW 4.0 mph6.4 kmh -338605.1 mb 0.00 in0.0 mm 0.00 in/hr0.0 mm/hr 0.00 in0.0 mm
05:42 PM 84.6°F29.2°C 26.4°F-3.1°C 12% 6.9 mph SSW11.1 kmh SSW 6.9 mph11.1 kmh -338605.1 mb 0.00 in0.0 mm 0.00 in/hr0.0 mm/hr 0.00 in0.0 mm
05:47 PM 84.2°F29.0°C 26.1°F-3.3°C 12% 6.9 mph S11.1 kmh S 2.9 mph4.7 kmh -338605.1 mb 0.00 in0.0 mm 0.00 in/hr0.0 mm/hr 0.00 in0.0 mm
05:52 PM 83.7°F28.7°C 27.7°F-2.4°C 13% 6.9 mph S11.1 kmh S 8.1 mph13.0 kmh -338605.1 mb 0.00 in0.0 mm 0.00 in/hr0.0 mm/hr 0.00 in0.0 mm
05:57 PM 83.5°F28.6°C 27.5°F-2.5°C 13% 6.9 mph S11.1 kmh S 6.0 mph9.7 kmh -338605.1 mb 0.00 in0.0 mm 0.00 in/hr0.0 mm/hr 0.00 in0.0 mm
06:02 PM 83.3°F28.5°C 27.3°F-2.6°C 13% 6.0 mph S9.7 kmh S 6.0 mph9.7 kmh -338605.1 mb 0.00 in0.0 mm 0.00 in/hr0.0 mm/hr 0.00 in0.0 mm
06:07 PM 82.9°F28.3°C 27.0°F-2.8°C 13% 4.9 mph S7.9 kmh S 4.9 mph7.9 kmh -338605.1 mb 0.00 in0.0 mm 0.00 in/hr0.0 mm/hr 0.00 in0.0 mm
06:12 PM 82.8°F28.2°C 27.0°F-2.8°C 13% 4.9 mph S7.9 kmh S 4.0 mph6.4 kmh -338605.1 mb 0.00 in0.0 mm 0.00 in/hr0.0 mm/hr 0.00 in0.0 mm
06:17 PM 82.4°F28.0°C 26.6°F-3.0°C 13% 4.0 mph S6.4 kmh S 2.0 mph3.2 kmh -338605.1 mb 0.00 in0.0 mm 0.00 in/hr0.0 mm/hr 0.00 in0.0 mm
06:22 PM 82.0°F27.8°C 26.4°F-3.1°C 13% 2.9 mph S4.7 kmh S 2.0 mph3.2 kmh -338605.1 mb 0.00 in0.0 mm 0.00 in/hr0.0 mm/hr 0.00 in0.0 mm
06:27 PM 81.7°F27.6°C 26.1°F-3.3°C 13% 2.0 mph S3.2 kmh S 2.0 mph3.2 kmh -338605.1 mb 0.00 in0.0 mm 0.00 in/hr0.0 mm/hr 0.00 in0.0 mm
06:32 PM 81.3°F27.4°C 27.5°F-2.5°C 14% 2.0 mph S3.2 kmh S 2.0 mph3.2 kmh -338605.1 mb 0.00 in0.0 mm 0.00 in/hr0.0 mm/hr 0.00 in0.0 mm
06:37 PM 81.0°F27.2°C 27.3°F-2.6°C 14% 2.9 mph S4.7 kmh S 2.9 mph4.7 kmh -338605.1 mb 0.00 in0.0 mm 0.00 in/hr0.0 mm/hr 0.00 in0.0 mm
06:42 PM 80.4°F26.9°C 26.8°F-2.9°C 14% 2.9 mph S4.7 kmh S 4.9 mph7.9 kmh -338605.1 mb 0.00 in0.0 mm 0.00 in/hr0.0 mm/hr 0.00 in0.0 mm
06:47 PM 80.1°F26.7°C 26.6°F-3.0°C 14% 2.9 mph S4.7 kmh S 2.0 mph3.2 kmh -338605.1 mb 0.00 in0.0 mm 0.00 in/hr0.0 mm/hr 0.00 in0.0 mm
06:52 PM 79.7°F26.5°C 28.0°F-2.2°C 15% 2.0 mph S3.2 kmh S 4.0 mph6.4 kmh -338605.1 mb 0.00 in0.0 mm 0.00 in/hr0.0 mm/hr 0.00 in0.0 mm
06:57 PM 79.3°F26.3°C 27.7°F-2.4°C 15% 2.0 mph S3.2 kmh S 2.0 mph3.2 kmh -338605.1 mb 0.00 in0.0 mm 0.00 in/hr0.0 mm/hr 0.00 in0.0 mm
07:02 PM 79.0°F26.1°C 27.3°F-2.6°C 15% 2.0 mph S3.2 kmh S -- -338605.1 mb 0.00 in0.0 mm 0.00 in/hr0.0 mm/hr 0.00 in0.0 mm
07:07 PM 78.6°F25.9°C 27.1°F-2.7°C 15% 0.9 mph S1.4 kmh S -- -338605.1 mb 0.00 in0.0 mm 0.00 in/hr0.0 mm/hr 0.00 in0.0 mm
07:12 PM 78.4°F25.8°C 27.0°F-2.8°C 15% Calm Calm -- -338605.1 mb 0.00 in0.0 mm 0.00 in/hr0.0 mm/hr 0.00 in0.0 mm
07:17 PM 78.3°F25.7°C 26.8°F-2.9°C 15% Calm Calm 0.9 mph1.4 kmh -338605.1 mb 0.00 in0.0 mm 0.00 in/hr0.0 mm/hr 0.00 in0.0 mm
07:22 PM 77.9°F25.5°C 28.0°F-2.2°C 16% 0.9 mph S1.4 kmh S 2.9 mph4.7 kmh -338605.1 mb 0.00 in0.0 mm 0.00 in/hr0.0 mm/hr 0.00 in0.0 mm
07:27 PM 77.5°F25.3°C 27.9°F-2.3°C 16% 2.0 mph S3.2 kmh S 0.9 mph1.4 kmh -338605.1 mb 0.00 in0.0 mm 0.00 in/hr0.0 mm/hr 0.00 in0.0 mm
07:32 PM 77.4°F25.2°C 27.7°F-2.4°C 16% 2.0 mph S3.2 kmh S 0.9 mph1.4 kmh -338605.1 mb 0.00 in0.0 mm 0.00 in/hr0.0 mm/hr 0.00 in0.0 mm
07:37 PM 77.2°F25.1°C 27.5°F-2.5°C 16% 0.9 mph S1.4 kmh S 2.9 mph4.7 kmh -338605.1 mb 0.00 in0.0 mm 0.00 in/hr0.0 mm/hr 0.00 in0.0 mm
07:42 PM 77.0°F25.0°C 27.3°F-2.6°C 16% 0.9 mph S1.4 kmh S -- -338605.1 mb 0.00 in0.0 mm 0.00 in/hr0.0 mm/hr 0.00 in0.0 mm
07:47 PM 76.8°F24.9°C 28.8°F-1.8°C 17% 0.9 mph S1.4 kmh S 4.0 mph6.4 kmh -338605.1 mb 0.00 in0.0 mm 0.00 in/hr0.0 mm/hr 0.00 in0.0 mm
07:52 PM 76.6°F24.8°C 27.1°F-2.7°C 16% 2.0 mph S3.2 kmh S 2.9 mph4.7 kmh -338605.1 mb 0.00 in0.0 mm 0.00 in/hr0.0 mm/hr 0.00 in0.0 mm
07:57 PM 76.5°F24.7°C 28.4°F-2.0°C 17% 4.0 mph S6.4 kmh S 4.9 mph7.9 kmh -338605.1 mb 0.00 in0.0 mm 0.00 in/hr0.0 mm/hr 0.00 in0.0 mm
08:02 PM 76.1°F24.5°C 28.0°F-2.2°C 17% 4.0 mph S6.4 kmh S 4.9 mph7.9 kmh -338605.1 mb 0.00 in0.0 mm 0.00 in/hr0.0 mm/hr 0.00 in0.0 mm
08:07 PM 75.7°F24.3°C 27.9°F-2.3°C 17% 4.9 mph SW7.9 kmh SW 4.9 mph7.9 kmh -338605.1 mb 0.00 in0.0 mm 0.00 in/hr0.0 mm/hr 0.00 in0.0 mm
08:12 PM 75.6°F24.2°C 27.7°F-2.4°C 17% 6.0 mph SW9.7 kmh SW 6.9 mph11.1 kmh -338605.1 mb 0.00 in0.0 mm 0.00 in/hr0.0 mm/hr 0.00 in0.0 mm
08:17 PM 75.0°F23.9°C 27.3°F-2.6°C 17% 6.0 mph SW9.7 kmh SW 6.0 mph9.7 kmh -338605.1 mb 0.00 in0.0 mm 0.00 in/hr0.0 mm/hr 0.00 in0.0 mm
08:22 PM 74.8°F23.8°C 27.1°F-2.7°C 17% 6.0 mph SW9.7 kmh SW 4.0 mph6.4 kmh -338605.1 mb 0.00 in0.0 mm 0.00 in/hr0.0 mm/hr 0.00 in0.0 mm
08:27 PM 74.7°F23.7°C 27.0°F-2.8°C 17% 4.9 mph SW7.9 kmh SW 4.9 mph7.9 kmh -338605.1 mb 0.00 in0.0 mm 0.00 in/hr0.0 mm/hr 0.00 in0.0 mm
08:32 PM 74.5°F23.6°C 28.2°F-2.1°C 18% 4.0 mph SW6.4 kmh SW 4.9 mph7.9 kmh -338605.1 mb 0.00 in0.0 mm 0.00 in/hr0.0 mm/hr 0.00 in0.0 mm
08:37 PM 74.1°F23.4°C 27.9°F-2.3°C 18% 4.0 mph SW6.4 kmh SW 2.9 mph4.7 kmh -338605.1 mb 0.00 in0.0 mm 0.00 in/hr0.0 mm/hr 0.00 in0.0 mm
08:42 PM 74.1°F23.4°C 27.9°F-2.3°C 18% 2.9 mph SSW4.7 kmh SSW 0.9 mph1.4 kmh -338605.1 mb 0.00 in0.0 mm 0.00 in/hr0.0 mm/hr 0.00 in0.0 mm
08:47 PM 73.9°F23.3°C 27.7°F-2.4°C 18% 2.9 mph SSW4.7 kmh SSW 0.9 mph1.4 kmh -338605.1 mb 0.00 in0.0 mm 0.00 in/hr0.0 mm/hr 0.00 in0.0 mm
08:52 PM 73.8°F23.2°C 27.7°F-2.4°C 18% 2.0 mph SSW3.2 kmh SSW 2.0 mph3.2 kmh -338605.1 mb 0.00 in0.0 mm 0.00 in/hr0.0 mm/hr 0.00 in0.0 mm
08:57 PM 73.8°F23.2°C 27.7°F-2.4°C 18% 2.0 mph SSW3.2 kmh SSW 2.0 mph3.2 kmh -338605.1 mb 0.00 in0.0 mm 0.00 in/hr0.0 mm/hr 0.00 in0.0 mm
09:02 PM 73.4°F23.0°C 28.6°F-1.9°C 19% 2.0 mph SSW3.2 kmh SSW 4.0 mph6.4 kmh -338605.1 mb 0.00 in0.0 mm 0.00 in/hr0.0 mm/hr 0.00 in0.0 mm
09:07 PM 73.0°F22.8°C 28.4°F-2.0°C 19% 2.9 mph S4.7 kmh S 2.9 mph4.7 kmh -338605.1 mb 0.00 in0.0 mm 0.00 in/hr0.0 mm/hr 0.00 in0.0 mm
09:12 PM 72.9°F22.7°C 28.2°F-2.1°C 19% 4.0 mph S6.4 kmh S 4.0 mph6.4 kmh -338605.1 mb 0.00 in0.0 mm 0.00 in/hr0.0 mm/hr 0.00 in0.0 mm
09:17 PM 72.9°F22.7°C 28.2°F-2.1°C 19% 2.9 mph S4.7 kmh S -- -338605.1 mb 0.00 in0.0 mm 0.00 in/hr0.0 mm/hr 0.00 in0.0 mm
09:22 PM 72.7°F22.6°C 28.0°F-2.2°C 19% 2.0 mph S3.2 kmh S 2.0 mph3.2 kmh -338605.1 mb 0.00 in0.0 mm 0.00 in/hr0.0 mm/hr 0.00 in0.0 mm
09:27 PM 72.5°F22.5°C 29.1°F-1.6°C 20% 0.9 mph S1.4 kmh S 0.9 mph1.4 kmh -338605.1 mb 0.00 in0.0 mm 0.00 in/hr0.0 mm/hr 0.00 in0.0 mm
09:32 PM 72.3°F22.4°C 28.9°F-1.7°C 20% Calm Calm -- -338605.1 mb 0.00 in0.0 mm 0.00 in/hr0.0 mm/hr 0.00 in0.0 mm
09:37 PM 72.0°F22.2°C 28.8°F-1.8°C 20% Calm Calm -- -338605.1 mb 0.00 in0.0 mm 0.00 in/hr0.0 mm/hr 0.00 in0.0 mm
09:42 PM 71.8°F22.1°C 28.6°F-1.9°C 20% Calm Calm 0.9 mph1.4 kmh -338605.1 mb 0.00 in0.0 mm 0.00 in/hr0.0 mm/hr 0.00 in0.0 mm
09:47 PM 71.8°F22.1°C 28.6°F-1.9°C 20% 0.9 mph S1.4 kmh S 2.0 mph3.2 kmh -338605.1 mb 0.00 in0.0 mm 0.00 in/hr0.0 mm/hr 0.00 in0.0 mm
09:52 PM 71.4°F21.9°C 29.5°F-1.4°C 21% 2.0 mph S3.2 kmh S 4.0 mph6.4 kmh -338605.1 mb 0.00 in0.0 mm 0.00 in/hr0.0 mm/hr 0.00 in0.0 mm
09:57 PM 71.2°F21.8°C 29.3°F-1.5°C 21% 2.9 mph S4.7 kmh S 4.0 mph6.4 kmh -338605.1 mb 0.00 in0.0 mm 0.00 in/hr0.0 mm/hr 0.00 in0.0 mm
10:02 PM 71.1°F21.7°C 28.0°F-2.2°C 20% 2.9 mph S4.7 kmh S 4.0 mph6.4 kmh -338605.1 mb 0.00 in0.0 mm 0.00 in/hr0.0 mm/hr 0.00 in0.0 mm
10:07 PM 70.5°F21.4°C 28.8°F-1.8°C 21% 2.9 mph S4.7 kmh S 4.9 mph7.9 kmh -338605.1 mb 0.00 in0.0 mm 0.00 in/hr0.0 mm/hr 0.00 in0.0 mm
10:12 PM 70.2°F21.2°C 28.4°F-2.0°C 21% 4.0 mph S6.4 kmh S 2.0 mph3.2 kmh -338605.1 mb 0.00 in0.0 mm 0.00 in/hr0.0 mm/hr 0.00 in0.0 mm
10:17 PM 70.0°F21.1°C 29.3°F-1.5°C 22% 2.9 mph S4.7 kmh S -- -338605.1 mb 0.00 in0.0 mm 0.00 in/hr0.0 mm/hr 0.00 in0.0 mm
10:22 PM 70.0°F21.1°C 30.6°F-0.8°C 23% 2.0 mph S3.2 kmh S 0.9 mph1.4 kmh -338605.1 mb 0.00 in0.0 mm 0.00 in/hr0.0 mm/hr 0.00 in0.0 mm
10:27 PM 69.6°F20.9°C 30.2°F-1.0°C 23% 0.9 mph S1.4 kmh S -- -338605.1 mb 0.00 in0.0 mm 0.00 in/hr0.0 mm/hr 0.00 in0.0 mm
10:32 PM 69.4°F20.8°C 30.0°F-1.1°C 23% Calm Calm -- -338605.1 mb 0.00 in0.0 mm 0.00 in/hr0.0 mm/hr 0.00 in0.0 mm
10:37 PM 69.4°F20.8°C 30.0°F-1.1°C 23% Calm Calm 0.9 mph1.4 kmh -338605.1 mb 0.00 in0.0 mm 0.00 in/hr0.0 mm/hr 0.00 in0.0 mm
10:42 PM 69.1°F20.6°C 30.7°F-0.7°C 24% 0.9 mph S1.4 kmh S 0.9 mph1.4 kmh -338605.1 mb 0.00 in0.0 mm 0.00 in/hr0.0 mm/hr 0.00 in0.0 mm
10:47 PM 68.7°F20.4°C 29.5°F-1.4°C 23% 0.9 mph S1.4 kmh S 2.0 mph3.2 kmh -338605.1 mb 0.00 in0.0 mm 0.00 in/hr0.0 mm/hr 0.00 in0.0 mm
10:52 PM 68.5°F20.3°C 29.3°F-1.5°C 23% 0.9 mph S1.4 kmh S 0.9 mph1.4 kmh -338605.1 mb 0.00 in0.0 mm 0.00 in/hr0.0 mm/hr 0.00 in0.0 mm
10:57 PM 68.2°F20.1°C 30.0°F-1.1°C 24% 2.0 mph S3.2 kmh S -- -338605.1 mb 0.00 in0.0 mm 0.00 in/hr0.0 mm/hr 0.00 in0.0 mm
11:02 PM 67.6°F19.8°C 29.5°F-1.4°C 24% 2.0 mph S3.2 kmh S 4.9 mph7.9 kmh -338605.1 mb 0.00 in0.0 mm 0.00 in/hr0.0 mm/hr 0.00 in0.0 mm
11:07 PM 67.1°F19.5°C 29.1°F-1.6°C 24% 2.9 mph S4.7 kmh S 4.0 mph6.4 kmh -338605.1 mb 0.00 in0.0 mm 0.00 in/hr0.0 mm/hr 0.00 in0.0 mm
11:12 PM 66.7°F19.3°C 28.8°F-1.8°C 24% 4.0 mph W6.4 kmh W 6.9 mph11.1 kmh -338605.1 mb 0.00 in0.0 mm 0.00 in/hr0.0 mm/hr 0.00 in0.0 mm
11:17 PM 66.6°F19.2°C 28.6°F-1.9°C 24% 4.9 mph W7.9 kmh W 6.9 mph11.1 kmh -338605.1 mb 0.00 in0.0 mm 0.00 in/hr0.0 mm/hr 0.00 in0.0 mm
11:22 PM 66.4°F19.1°C 28.4°F-2.0°C 24% 6.0 mph WNW9.7 kmh WNW 6.9 mph11.1 kmh -338605.1 mb 0.00 in0.0 mm 0.00 in/hr0.0 mm/hr 0.00 in0.0 mm
11:27 PM 66.0°F18.9°C 28.2°F-2.1°C 24% 6.9 mph W11.1 kmh W 6.0 mph9.7 kmh -338605.1 mb 0.00 in0.0 mm 0.00 in/hr0.0 mm/hr 0.00 in0.0 mm
11:32 PM 65.8°F18.8°C 28.0°F-2.2°C 24% 6.0 mph WNW9.7 kmh WNW 8.1 mph13.0 kmh -338605.1 mb 0.00 in0.0 mm 0.00 in/hr0.0 mm/hr 0.00 in0.0 mm
11:37 PM 65.7°F18.7°C 27.9°F-2.3°C 24% 4.9 mph W7.9 kmh W 6.0 mph9.7 kmh -338605.1 mb 0.00 in0.0 mm 0.00 in/hr0.0 mm/hr 0.00 in0.0 mm
11:42 PM 65.5°F18.6°C 27.7°F-2.4°C 24% 6.0 mph W9.7 kmh W 8.9 mph14.3 kmh -338605.1 mb 0.00 in0.0 mm 0.00 in/hr0.0 mm/hr 0.00 in0.0 mm
11:47 PM 65.5°F18.6°C 27.7°F-2.4°C 24% 6.9 mph W11.1 kmh W 8.9 mph14.3 kmh -338605.1 mb 0.00 in0.0 mm 0.00 in/hr0.0 mm/hr 0.00 in0.0 mm
11:52 PM 65.5°F18.6°C 27.7°F-2.4°C 24% 8.1 mph W13.0 kmh W 6.9 mph11.1 kmh -338605.1 mb 0.00 in0.0 mm 0.00 in/hr0.0 mm/hr 0.00 in0.0 mm
11:57 PM 65.8°F18.8°C 28.0°F-2.2°C 24% 8.1 mph W13.0 kmh W 6.9 mph11.1 kmh -338605.1 mb 0.00 in0.0 mm 0.00 in/hr0.0 mm/hr 0.00 in0.0 mm